Language selection

My Weather Profile Weather Topics  | 

Resolution - eastern half: Past 24 Hour Conditions

 

CFB Goose Bay

03:00 AM ADT 21 June 2021
Disclaimer

This table is a summary of hourly weather conditions for the past 24 hours.
Please note that these observations might not always be representative of weather conditions over their associated marine area.

Date / Time
(ADT)
Wind(knots) Conditions Visibility(km) Pressure(kPa) Air tempC) Relative humidity(%) Dew pointC)
21 June 2021
3:00 W 4 Cloudy 24 100.5 9 87 7
2:00 W 5 Cloudy 24 100.5 9 86 7
1:00 W 6 Cloudy 24 100.4 9 87 7
0:00 WNW 5 Light Drizzle 13 100.4 9 87 7
20 June 2021
23:00 WNW 9 Light Rain and Drizzle 13 100.4 10 85 7
22:00 WNW 10 Light Rain and Fog 10 100.4 10 86 8
21:00 NW 10 gust 15 Cloudy 24 100.3 11 83 9
20:00 WNW 10 Light Rain 24 100.3 12 85 9
19:00 WNW 10 Cloudy 11 100.2 13 88 11
18:00 NNE 5 Light Rain and Fog 6 100.2 13 91 12
17:00 NNE 6 Light Drizzle 11 100.2 13 91 12
16:00 NE 9 Light Rain and Fog 10 100.2 13 89 12
15:00 NNE 7 Cloudy 24 100.1 13 87 11
14:00 NE 8 Cloudy 24 100.1 14 87 12
13:00 calm Cloudy 24 100.1 14 86 12
12:00 NNE 5 Cloudy 24 100.1 14 87 12
11:00 calm Cloudy 24 100.1 15 82 12
10:00 calm Cloudy 24 100.1 14 85 12
9:00 SE 4 Light Rain 16 100.2 13 88 11
8:00 SE 4 Cloudy 24 100.2 13 84 11
7:00 calm Cloudy 24 100.2 13 84 10
6:00 SSE 5 Cloudy 24 100.1 13 83 10
5:00 SSE 4 Cloudy 24 100.1 13 83 10
4:00 SSE 4 Cloudy 24 100.1 13 84 10
3:00 SE 6 Cloudy 24 100.1 13 83 11

Zoom-in to make a selection

Map of Atlantic - Labrador marine weather areas Kangiqsualujjuaq Airport Cape Kakkiviak Cape Kiglapait Cartwright Airport CFB Goose Bay Hopedale Mary's Harbour Nain Airport Makkovik Airport Saglek Tukialik Bay
Legend:
buoy Buoy
land station Land Station

Atlantic - Labrador Area

Another Region

What we are doing

Date modified: